createdAt,value
2023-02-11T00:00:35.731Z,66.000
2023-02-11T00:01:35.492Z,64.500
2023-02-11T00:02:35.392Z,62.800
2023-02-11T00:03:35.383Z,62.800
2023-02-11T00:04:35.349Z,62.600
2023-02-11T00:05:35.032Z,64.200
2023-02-11T00:06:35.778Z,64.000
2023-02-11T00:07:35.436Z,63.300
2023-02-11T00:08:35.206Z,63.600
2023-02-11T00:09:34.911Z,63.200
2023-02-11T00:10:35.588Z,64.900
2023-02-11T00:11:35.440Z,64.200
2023-02-11T00:12:35.159Z,65.600
2023-02-11T00:13:35.854Z,63.800
2023-02-11T00:14:35.580Z,64.200
2023-02-11T00:15:35.232Z,63.100
2023-02-11T00:16:35.068Z,62.300
2023-02-11T00:17:35.852Z,62.500
2023-02-11T00:18:35.516Z,65.700
2023-02-11T00:19:35.161Z,61.200
2023-02-11T00:20:35.913Z,62.900
2023-02-11T00:21:35.684Z,61.500
2023-02-11T00:22:35.424Z,61.900
2023-02-11T00:23:35.150Z,62.500
2023-02-11T00:24:35.887Z,64.600
2023-02-11T00:25:35.777Z,62.400
2023-02-11T00:26:35.840Z,63.300
2023-02-11T00:27:35.618Z,63.800
2023-02-11T00:28:35.476Z,64.700
2023-02-11T00:29:35.204Z,65.600
2023-02-11T00:30:34.967Z,63.000
2023-02-11T00:31:35.387Z,62.600
2023-02-11T00:32:35.291Z,60.700
2023-02-11T00:33:35.080Z,63.000
2023-02-11T00:34:35.692Z,59.700
2023-02-11T00:35:35.472Z,59.700
2023-02-11T00:36:35.179Z,60.200
2023-02-11T00:37:35.008Z,60.400
2023-02-11T00:38:35.638Z,59.600
2023-02-11T00:39:35.410Z,59.900
2023-02-11T00:40:35.208Z,60.000
2023-02-11T00:41:34.892Z,62.100
2023-02-11T00:42:35.639Z,60.100
2023-02-11T00:43:35.489Z,59.600
2023-02-11T00:44:35.120Z,59.000
2023-02-11T00:45:36.024Z,59.600
2023-02-11T00:46:35.805Z,59.200
2023-02-11T00:47:35.496Z,58.100
2023-02-11T00:48:35.217Z,59.900
2023-02-11T00:49:34.837Z,57.800
2023-02-11T00:50:35.521Z,58.300
2023-02-11T00:51:35.269Z,57.800
2023-02-11T00:52:34.982Z,57.400
2023-02-11T00:53:36.864Z,56.800
2023-02-11T00:54:35.492Z,60.600
2023-02-11T00:55:35.125Z,59.500
2023-02-11T00:56:37.602Z,57.600
2023-02-11T00:57:35.001Z,58.000
2023-02-11T00:58:35.677Z,56.800
2023-02-11T00:59:35.573Z,57.500
2023-02-11T01:00:35.408Z,54.800
2023-02-11T01:01:35.676Z,59.100
2023-02-11T01:02:35.376Z,56.100
2023-02-11T01:03:35.208Z,59.100
2023-02-11T01:04:34.884Z,56.500
2023-02-11T01:05:35.849Z,57.100
2023-02-11T01:06:35.613Z,56.800
2023-02-11T01:07:35.258Z,56.800
2023-02-11T01:08:34.930Z,58.800
2023-02-11T01:09:35.611Z,55.200
2023-02-11T01:10:35.167Z,58.100
2023-02-11T01:11:35.032Z,57.300
2023-02-11T01:12:36.574Z,56.200
2023-02-11T01:13:35.358Z,55.800
2023-02-11T01:14:35.275Z,56.100
2023-02-11T01:15:35.078Z,56.100
2023-02-11T01:16:35.109Z,56.600
2023-02-11T01:17:35.910Z,55.700
2023-02-11T01:18:35.609Z,55.300
2023-02-11T01:19:36.697Z,57.100
2023-02-11T01:20:35.417Z,57.100
2023-02-11T01:21:35.062Z,58.300
2023-02-11T01:22:35.741Z,55.800
2023-02-11T01:23:35.325Z,55.000
2023-02-11T01:24:35.038Z,56.600
2023-02-11T01:25:35.729Z,56.700
2023-02-11T01:26:35.433Z,56.100
2023-02-11T01:27:35.109Z,55.200
2023-02-11T01:28:36.188Z,55.500
2023-02-11T01:29:35.233Z,59.000
2023-02-11T01:30:35.993Z,56.200
2023-02-11T01:31:36.031Z,56.700
2023-02-11T01:32:35.087Z,57.300
2023-02-11T01:33:35.702Z,55.300
2023-02-11T01:34:35.408Z,57.900
2023-02-11T01:35:35.160Z,56.200
2023-02-11T01:36:35.931Z,54.900
2023-02-11T01:37:35.650Z,57.600
2023-02-11T01:38:35.296Z,56.200
2023-02-11T01:39:36.135Z,56.100
2023-02-11T01:40:36.032Z,56.000
2023-02-11T01:41:35.810Z,58.900
2023-02-11T01:42:35.574Z,55.300
2023-02-11T01:43:35.324Z,55.700
2023-02-11T01:44:34.979Z,56.200
2023-02-11T01:45:35.833Z,56.400
2023-02-11T01:46:35.954Z,55.500
2023-02-11T01:47:35.222Z,58.100
2023-02-11T01:48:35.056Z,55.900
2023-02-11T01:49:36.180Z,56.100
2023-02-11T01:50:34.997Z,57.500
2023-02-11T01:51:35.765Z,56.800
2023-02-11T01:52:35.430Z,57.800
2023-02-11T01:53:35.141Z,57.200
2023-02-11T01:54:34.849Z,55.800
2023-02-11T01:55:35.525Z,56.100
2023-02-11T01:56:35.193Z,54.700
2023-02-11T01:57:35.073Z,56.400
2023-02-11T01:58:35.745Z,54.600
2023-02-11T01:59:35.500Z,54.700
2023-02-11T02:00:35.344Z,55.300
2023-02-11T02:01:35.208Z,54.200
2023-02-11T02:02:35.096Z,55.900
2023-02-11T02:03:35.840Z,54.000
2023-02-11T02:04:35.710Z,56.000
2023-02-11T02:05:35.456Z,54.000
2023-02-11T02:06:35.076Z,55.800
2023-02-11T02:07:35.320Z,54.800
2023-02-11T02:08:35.043Z,55.000
2023-02-11T02:09:35.852Z,54.900
2023-02-11T02:10:35.492Z,55.300
2023-02-11T02:11:35.302Z,55.000
2023-02-11T02:12:35.110Z,54.800
2023-02-11T02:13:35.850Z,54.200
2023-02-11T02:14:35.597Z,54.700
2023-02-11T02:15:35.408Z,52.600
2023-02-11T02:16:35.323Z,52.600
2023-02-11T02:17:35.162Z,55.100
2023-02-11T02:18:34.866Z,55.500
2023-02-11T02:19:35.601Z,54.900
2023-02-11T02:20:35.358Z,55.600
2023-02-11T02:21:35.076Z,54.900
2023-02-11T02:22:35.704Z,54.100
2023-02-11T02:23:35.414Z,53.000
2023-02-11T02:24:35.114Z,52.800
2023-02-11T02:25:36.101Z,52.600
2023-02-11T02:26:35.877Z,53.800
2023-02-11T02:27:35.540Z,53.500
2023-02-11T02:28:35.485Z,53.800
2023-02-11T02:29:35.216Z,55.100
2023-02-11T02:30:35.091Z,53.300
2023-02-11T02:31:36.109Z,54.900
2023-02-11T02:32:34.920Z,54.200
2023-02-11T02:33:40.560Z,52.400
2023-02-11T02:34:35.352Z,52.700
2023-02-11T02:35:35.025Z,54.300
2023-02-11T02:36:35.652Z,55.400
2023-02-11T02:37:35.456Z,54.300
2023-02-11T02:38:35.154Z,53.600
2023-02-11T02:39:35.849Z,51.700
2023-02-11T02:40:35.592Z,51.000
2023-02-11T02:41:35.326Z,52.100
2023-02-11T02:42:35.120Z,52.300
2023-02-11T02:43:35.846Z,51.800
2023-02-11T02:44:35.945Z,53.100
2023-02-11T02:45:35.677Z,53.000
2023-02-11T02:46:35.617Z,53.900
2023-02-11T02:47:35.478Z,53.100
2023-02-11T02:48:35.142Z,52.900
2023-02-11T02:49:35.775Z,50.600
2023-02-11T02:50:35.554Z,52.500
2023-02-11T02:51:35.308Z,52.700
2023-02-11T02:52:34.965Z,51.400
2023-02-11T02:53:35.825Z,53.100
2023-02-11T02:54:35.549Z,52.200
2023-02-11T02:55:35.202Z,50.700
2023-02-11T02:56:35.251Z,52.500
2023-02-11T02:57:34.956Z,52.000
2023-02-11T02:58:35.621Z,50.000
2023-02-11T02:59:35.179Z,50.400
2023-02-11T03:00:35.905Z,51.800
2023-02-11T03:01:35.718Z,51.500
2023-02-11T03:02:37.408Z,50.600
2023-02-11T03:03:35.245Z,49.600
2023-02-11T03:04:35.113Z,52.100
2023-02-11T03:05:35.739Z,51.100
2023-02-11T03:06:35.708Z,50.500
2023-02-11T03:07:35.637Z,49.600
2023-02-11T03:08:35.423Z,51.000
2023-02-11T03:09:35.084Z,51.600
2023-02-11T03:10:35.917Z,51.200
2023-02-11T03:11:35.583Z,50.800
2023-02-11T03:12:35.252Z,50.700
2023-02-11T03:13:35.405Z,51.700
2023-02-11T03:14:35.165Z,50.000
2023-02-11T03:15:35.976Z,49.300
2023-02-11T03:16:35.890Z,52.000
2023-02-11T03:17:35.897Z,52.400
2023-02-11T03:18:35.669Z,51.000
2023-02-11T03:19:35.433Z,53.200
2023-02-11T03:20:35.142Z,51.100
2023-02-11T03:21:35.821Z,51.600
2023-02-11T03:22:35.704Z,52.800
2023-02-11T03:23:35.485Z,50.800
2023-02-11T03:24:35.887Z,50.400
2023-02-11T03:25:35.500Z,51.400
2023-02-11T03:26:35.107Z,51.400
2023-02-11T03:27:35.862Z,49.700
2023-02-11T03:28:35.625Z,50.600
2023-02-11T03:29:35.430Z,50.500
2023-02-11T03:30:35.165Z,49.400
2023-02-11T03:31:36.247Z,51.200
2023-02-11T03:32:35.339Z,52.000
2023-02-11T03:33:35.210Z,51.600
2023-02-11T03:34:34.936Z,50.100
2023-02-11T03:35:35.572Z,50.900
2023-02-11T03:36:35.259Z,51.600
2023-02-11T03:37:34.912Z,51.800
2023-02-11T03:38:35.474Z,51.700
2023-02-11T03:39:35.163Z,52.200
2023-02-11T03:40:35.041Z,50.100
2023-02-11T03:41:35.831Z,51.000
2023-02-11T03:42:35.653Z,49.900
2023-02-11T03:43:35.560Z,48.700
2023-02-11T03:44:35.309Z,51.100
2023-02-11T03:45:35.178Z,48.900
2023-02-11T03:46:35.188Z,50.200
2023-02-11T03:47:34.878Z,48.500
2023-02-11T03:48:35.616Z,47.700
2023-02-11T03:49:35.615Z,51.900
2023-02-11T03:50:35.389Z,50.300
2023-02-11T03:51:35.225Z,52.400
2023-02-11T03:52:34.884Z,52.600
2023-02-11T03:53:35.648Z,50.700
2023-02-11T03:54:35.296Z,51.700
2023-02-11T03:55:34.908Z,50.200
2023-02-11T03:56:35.579Z,51.300
2023-02-11T03:57:35.268Z,51.100
2023-02-11T03:58:34.932Z,51.100
2023-02-11T03:59:35.704Z,50.800
2023-02-11T04:00:35.510Z,50.700
2023-02-11T04:01:35.403Z,50.800
2023-02-11T04:02:35.169Z,50.300
2023-02-11T04:03:36.229Z,49.300
2023-02-11T04:04:35.141Z,49.100
2023-02-11T04:05:35.139Z,48.800
2023-02-11T04:06:35.834Z,49.600
2023-02-11T04:07:35.597Z,47.900
2023-02-11T04:08:35.641Z,47.900
2023-02-11T04:09:35.356Z,48.200
2023-02-11T04:10:35.128Z,49.700
2023-02-11T04:11:35.862Z,49.600
2023-02-11T04:12:35.582Z,47.900
2023-02-11T04:13:35.472Z,49.300
2023-02-11T04:14:35.171Z,48.500
2023-02-11T04:15:36.618Z,49.700
2023-02-11T04:16:41.387Z,49.500
2023-02-11T04:17:35.451Z,49.600
2023-02-11T04:18:35.379Z,49.800
2023-02-11T04:19:35.281Z,49.700
2023-02-11T04:20:35.127Z,49.400
2023-02-11T04:21:35.843Z,48.600
2023-02-11T04:22:36.632Z,49.500
2023-02-11T04:23:35.384Z,49.200
2023-02-11T04:24:35.111Z,49.100
2023-02-11T04:25:34.916Z,47.700
2023-02-11T04:26:35.804Z,48.900
2023-02-11T04:27:35.456Z,47.700
2023-02-11T04:28:35.475Z,48.300
2023-02-11T04:29:35.749Z,47.300
2023-02-11T04:30:35.828Z,47.000
2023-02-11T04:31:35.869Z,46.900
2023-02-11T04:32:35.784Z,49.400
2023-02-11T04:33:35.497Z,48.900
2023-02-11T04:34:35.336Z,47.800
2023-02-11T04:35:35.182Z,47.400
2023-02-11T04:36:34.921Z,46.500
2023-02-11T04:37:35.617Z,47.300
2023-02-11T04:38:35.361Z,47.300
2023-02-11T04:39:35.264Z,46.700
2023-02-11T04:40:34.864Z,47.900
2023-02-11T04:41:35.568Z,49.000
2023-02-11T04:42:37.071Z,48.000
2023-02-11T04:43:35.809Z,45.800
2023-02-11T04:44:35.604Z,46.900
2023-02-11T04:45:35.283Z,47.400
2023-02-11T04:46:35.325Z,46.400
2023-02-11T04:47:35.093Z,46.400
2023-02-11T04:48:35.951Z,48.100
2023-02-11T04:49:35.893Z,48.400
2023-02-11T04:50:35.736Z,46.100
2023-02-11T04:51:35.464Z,47.800
2023-02-11T04:52:35.204Z,48.300
2023-02-11T04:53:35.950Z,47.900
2023-02-11T04:54:35.677Z,48.700
2023-02-11T04:55:35.388Z,48.400
2023-02-11T04:56:35.044Z,49.100
2023-02-11T04:57:35.794Z,48.400
2023-02-11T04:58:35.804Z,49.700
2023-02-11T04:59:35.575Z,48.100
2023-02-11T05:00:35.488Z,49.900
2023-02-11T05:01:35.570Z,49.100
2023-02-11T05:02:35.394Z,48.900
2023-02-11T05:03:35.160Z,47.100
2023-02-11T05:04:35.307Z,46.500
2023-02-11T05:05:35.141Z,48.200
2023-02-11T05:06:35.849Z,45.800
2023-02-11T05:07:35.520Z,46.900
2023-02-11T05:08:35.354Z,45.400
2023-02-11T05:09:35.105Z,45.400
2023-02-11T05:10:35.907Z,45.600
2023-02-11T05:11:35.573Z,46.600
2023-02-11T05:12:35.276Z,45.800
2023-02-11T05:13:35.064Z,46.100
2023-02-11T05:14:35.779Z,44.900
2023-02-11T05:15:35.666Z,44.900
2023-02-11T05:16:35.659Z,45.000
2023-02-11T05:17:35.841Z,44.700
2023-02-11T05:18:35.757Z,46.900
2023-02-11T05:19:35.468Z,45.800
2023-02-11T05:20:35.221Z,46.500
2023-02-11T05:21:35.275Z,45.100
2023-02-11T05:22:37.299Z,45.300
2023-02-11T05:23:35.160Z,46.300
2023-02-11T05:24:35.900Z,43.800
2023-02-11T05:25:35.921Z,47.400
2023-02-11T05:26:35.860Z,45.000
2023-02-11T05:27:35.584Z,45.600
2023-02-11T05:28:35.336Z,46.700
2023-02-11T05:29:35.121Z,46.200
2023-02-11T05:30:35.900Z,45.600
2023-02-11T05:31:35.944Z,45.400
2023-02-11T05:32:35.573Z,46.300
2023-02-11T05:33:35.305Z,46.400
2023-02-11T05:34:35.114Z,43.700
2023-02-11T05:35:35.901Z,43.400
2023-02-11T05:36:35.653Z,45.000
2023-02-11T05:37:35.712Z,47.100
2023-02-11T05:38:35.517Z,44.300
2023-02-11T05:39:35.221Z,46.900
2023-02-11T05:40:35.005Z,44.500
2023-02-11T05:41:35.701Z,45.300
2023-02-11T05:42:35.369Z,45.000
2023-02-11T05:43:35.350Z,44.900
2023-02-11T05:44:35.137Z,44.200
2023-02-11T05:45:35.725Z,45.100
2023-02-11T05:46:35.732Z,44.600
2023-02-11T05:47:35.576Z,46.500
2023-02-11T05:48:35.215Z,46.500
2023-02-11T05:49:34.976Z,44.900
2023-02-11T05:50:35.676Z,42.500
2023-02-11T05:51:35.535Z,45.300
2023-02-11T05:52:35.211Z,45.500
2023-02-11T05:53:35.305Z,44.600
2023-02-11T05:54:34.954Z,45.300
2023-02-11T05:55:35.836Z,43.800
2023-02-11T05:56:35.461Z,44.300
2023-02-11T05:57:35.085Z,43.800
2023-02-11T05:58:35.729Z,42.500
2023-02-11T05:59:35.468Z,44.100
2023-02-11T06:00:35.217Z,44.500
2023-02-11T06:01:34.969Z,44.100
2023-02-11T06:02:35.688Z,44.800
2023-02-11T06:03:35.612Z,43.700
2023-02-11T06:04:35.745Z,45.500
2023-02-11T06:05:35.492Z,46.900
2023-02-11T06:06:35.305Z,46.900
2023-02-11T06:07:35.032Z,46.800
2023-02-11T06:08:38.853Z,46.600
2023-02-11T06:09:35.865Z,46.500
2023-02-11T06:10:35.532Z,46.600
2023-02-11T06:11:35.349Z,47.700
2023-02-11T06:12:35.055Z,46.500
2023-02-11T06:13:35.793Z,46.300
2023-02-11T06:14:35.593Z,45.500
2023-02-11T06:15:35.685Z,45.800
2023-02-11T06:16:35.515Z,45.300
2023-02-11T06:17:35.092Z,46.000
2023-02-11T06:18:35.780Z,45.300
2023-02-11T06:19:35.488Z,45.800
2023-02-11T06:20:35.139Z,44.900
2023-02-11T06:21:43.183Z,45.300
2023-02-11T06:22:35.374Z,44.300
2023-02-11T06:23:35.225Z,45.300
2023-02-11T06:25:00.192Z,44.400
2023-02-11T06:26:48.351Z,46.100
2023-02-11T06:27:48.028Z,43.500
2023-02-11T06:28:48.944Z,45.200
2023-02-11T06:29:48.776Z,45.500
2023-02-11T06:30:48.657Z,44.200
2023-02-11T06:31:48.749Z,43.200
2023-02-11T06:33:00.388Z,45.200
2023-02-11T06:34:50.105Z,43.800
2023-02-11T06:35:51.022Z,45.100
2023-02-11T06:36:50.201Z,44.200
2023-02-11T06:37:49.920Z,45.100
2023-02-11T06:38:50.580Z,43.000
2023-02-11T06:39:50.369Z,43.500
2023-02-11T06:40:50.105Z,44.300
2023-02-11T06:41:50.785Z,45.000
2023-02-11T06:42:52.186Z,45.200
2023-02-11T06:44:50.473Z,45.900
2023-02-11T06:45:50.372Z,45.400
2023-02-11T06:46:50.798Z,44.800
2023-02-11T06:47:50.852Z,43.900
2023-02-11T06:48:50.448Z,44.800
2023-02-11T06:49:50.115Z,43.500
2023-02-11T06:50:50.761Z,43.200
2023-02-11T06:51:50.352Z,45.500
2023-02-11T06:52:49.936Z,44.900
2023-02-11T06:53:50.639Z,44.200
2023-02-11T06:54:50.297Z,43.200
2023-02-11T06:55:50.244Z,42.600
2023-02-11T06:56:50.002Z,43.500
2023-02-11T06:57:50.658Z,42.000
2023-02-11T06:58:50.348Z,43.400
2023-02-11T06:59:50.080Z,43.400
2023-02-11T07:00:50.841Z,43.600
2023-02-11T07:01:50.663Z,43.700
2023-02-11T07:02:52.410Z,42.300
2023-02-11T07:03:50.293Z,42.500
2023-02-11T07:04:51.348Z,43.500
2023-02-11T07:05:50.275Z,42.200
2023-02-11T07:06:50.020Z,42.300
2023-02-11T07:07:50.766Z,42.100
2023-02-11T07:08:50.602Z,43.600
2023-02-11T07:09:50.529Z,44.100
2023-02-11T07:10:50.321Z,42.300
2023-02-11T07:11:49.966Z,43.300
2023-02-11T07:12:50.635Z,43.600
2023-02-11T07:13:50.491Z,43.300
2023-02-11T07:14:50.236Z,42.400
2023-02-11T07:15:50.130Z,42.200
2023-02-11T07:16:50.663Z,43.900
2023-02-11T07:17:50.290Z,42.500
2023-02-11T07:18:50.075Z,43.900
2023-02-11T07:19:50.800Z,41.700
2023-02-11T07:20:50.549Z,43.800
2023-02-11T07:21:50.168Z,42.800
2023-02-11T07:22:49.956Z,41.800
2023-02-11T07:23:51.332Z,42.700
2023-02-11T07:24:49.980Z,43.500
2023-02-11T07:25:50.965Z,43.200
2023-02-11T07:26:49.836Z,43.700
2023-02-11T07:27:50.556Z,43.400
2023-02-11T07:28:50.417Z,45.600
2023-02-11T07:29:50.069Z,43.700
2023-02-11T07:30:50.673Z,42.600
2023-02-11T07:31:50.958Z,43.600
2023-02-11T07:32:50.890Z,43.000
2023-02-11T07:33:50.718Z,44.000
2023-02-11T07:34:50.604Z,42.800
2023-02-11T07:35:50.529Z,43.600
2023-02-11T07:36:50.711Z,44.100
2023-02-11T07:37:50.442Z,44.900
2023-02-11T07:38:50.095Z,43.500
2023-02-11T07:39:50.877Z,42.900
2023-02-11T07:40:50.546Z,41.800
2023-02-11T07:41:53.505Z,42.000
2023-02-11T07:42:50.529Z,42.300
2023-02-11T07:43:50.219Z,41.500
2023-02-11T07:44:50.590Z,42.500
2023-02-11T07:45:50.536Z,42.700
2023-02-11T07:46:50.641Z,41.100
2023-02-11T07:47:50.604Z,42.100
2023-02-11T07:48:50.223Z,40.600
2023-02-11T07:49:49.861Z,40.800
2023-02-11T07:50:50.564Z,44.300
2023-02-11T07:51:50.299Z,44.900
2023-02-11T07:52:50.208Z,47.600
2023-02-11T07:53:50.013Z,45.600
2023-02-11T07:54:50.825Z,42.700
2023-02-11T07:55:50.668Z,44.800
2023-02-11T07:56:50.716Z,43.500
2023-02-11T07:57:50.389Z,43.800
2023-02-11T07:58:50.092Z,45.700
2023-02-11T07:59:50.742Z,44.300
2023-02-11T08:00:53.397Z,43.900
2023-02-11T08:02:51.081Z,41.700
2023-02-11T08:03:50.790Z,43.800
2023-02-11T08:04:50.596Z,41.400
2023-02-11T08:05:50.553Z,42.800
2023-02-11T08:06:50.745Z,43.300
2023-02-11T08:07:50.758Z,41.300
2023-02-11T08:08:50.489Z,41.600
2023-02-11T08:09:51.076Z,40.600
2023-02-11T08:10:51.619Z,40.100
2023-02-11T08:11:50.748Z,40.600
2023-02-11T08:12:50.607Z,40.900
2023-02-11T08:13:50.594Z,41.000
2023-02-11T08:14:50.279Z,40.300
2023-02-11T08:15:50.357Z,39.300
2023-02-11T08:16:50.866Z,39.000
2023-02-11T08:17:51.117Z,40.400
2023-02-11T08:18:50.499Z,40.300
2023-02-11T08:19:51.545Z,40.000
2023-02-11T08:20:50.403Z,38.700
2023-02-11T08:21:50.228Z,39.100
2023-02-11T08:22:49.952Z,38.800
2023-02-11T08:23:50.655Z,39.600
2023-02-11T08:24:52.352Z,41.400
2023-02-11T08:25:50.164Z,40.100
2023-02-11T08:26:49.885Z,39.300
2023-02-11T08:27:50.537Z,39.600
2023-02-11T08:28:50.325Z,40.500
2023-02-11T08:29:50.010Z,38.600
2023-02-11T08:30:50.957Z,38.600
2023-02-11T08:31:50.614Z,39.800
2023-02-11T08:32:50.564Z,39.100
2023-02-11T08:33:50.320Z,39.100
2023-02-11T08:34:49.950Z,41.500
2023-02-11T08:35:50.675Z,39.600
2023-02-11T08:36:50.377Z,37.600
2023-02-11T08:37:50.065Z,38.000
2023-02-11T08:38:50.868Z,39.800
2023-02-11T08:39:53.777Z,38.700
2023-02-11T08:40:50.858Z,38.400
2023-02-11T08:42:50.411Z,37.800
2023-02-11T08:43:50.344Z,39.900
2023-02-11T08:44:50.212Z,38.200
2023-02-11T08:45:50.735Z,38.600
2023-02-11T08:46:50.074Z,38.300
2023-02-11T08:47:50.744Z,39.700
2023-02-11T08:48:50.528Z,37.300
2023-02-11T08:49:50.326Z,38.100
2023-02-11T08:50:50.017Z,38.300
2023-02-11T08:51:50.675Z,38.900
2023-02-11T08:52:50.504Z,35.600
2023-02-11T08:53:50.223Z,37.200
2023-02-11T08:54:49.871Z,38.100
2023-02-11T08:55:50.782Z,39.700
2023-02-11T08:56:50.012Z,38.600
2023-02-11T08:57:50.681Z,37.700
2023-02-11T08:58:52.984Z,37.900
2023-02-11T08:59:50.696Z,36.800
2023-02-11T09:00:50.716Z,37.700
2023-02-11T09:01:50.197Z,38.600
2023-02-11T09:02:50.080Z,38.900
2023-02-11T09:03:50.680Z,37.900
2023-02-11T09:04:50.479Z,36.800
2023-02-11T09:05:50.181Z,36.900
2023-02-11T09:06:50.720Z,35.400
2023-02-11T09:07:50.481Z,38.100
2023-02-11T09:08:50.151Z,38.300
2023-02-11T09:09:50.817Z,37.500
2023-02-11T09:10:50.755Z,37.500
2023-02-11T09:11:50.597Z,37.300
2023-02-11T09:12:50.301Z,36.700
2023-02-11T09:13:52.040Z,36.700
2023-02-11T09:14:50.088Z,37.200
2023-02-11T09:15:50.843Z,36.300
2023-02-11T09:16:50.750Z,36.200
2023-02-11T09:17:50.566Z,36.900
2023-02-11T09:18:50.305Z,37.400
2023-02-11T09:19:50.097Z,38.900
2023-02-11T09:20:51.004Z,38.600
2023-02-11T09:21:50.078Z,36.800
2023-02-11T09:22:51.408Z,37.100
2023-02-11T09:23:52.465Z,37.300
2023-02-11T09:24:50.240Z,35.900
2023-02-11T09:25:50.108Z,38.200
2023-02-11T09:26:50.448Z,36.600
2023-02-11T09:27:50.192Z,37.800
2023-02-11T09:28:50.203Z,37.200
2023-02-11T09:29:49.944Z,38.000
2023-02-11T09:30:51.223Z,38.400
2023-02-11T09:31:50.538Z,38.100
2023-02-11T09:32:50.620Z,37.500
2023-02-11T09:33:50.351Z,37.300
2023-02-11T09:34:50.200Z,37.400
2023-02-11T09:35:51.004Z,36.900
2023-02-11T09:36:50.749Z,38.200
2023-02-11T09:37:53.493Z,37.200
2023-02-11T09:38:50.282Z,36.500
2023-02-11T09:39:50.129Z,37.100
2023-02-11T09:40:51.150Z,37.400
2023-02-11T09:41:50.246Z,36.400
2023-02-11T09:42:49.961Z,36.400
2023-02-11T09:43:50.717Z,35.100
2023-02-11T09:44:50.529Z,36.000
2023-02-11T09:45:50.460Z,35.100
2023-02-11T09:46:50.710Z,36.300
2023-02-11T09:47:50.796Z,36.400
2023-02-11T09:48:50.789Z,35.800
2023-02-11T09:49:50.468Z,35.600
2023-02-11T09:50:50.307Z,35.600
2023-02-11T09:51:50.635Z,30.200
2023-02-11T09:52:50.383Z,30.100
2023-02-11T09:53:50.100Z,32.900
2023-02-11T09:54:50.811Z,32.800
2023-02-11T09:55:50.450Z,34.300
2023-02-11T09:56:50.168Z,31.300
2023-02-11T09:57:54.783Z,31.400
2023-02-11T09:58:50.481Z,34.100
2023-02-11T09:59:51.481Z,32.600
2023-02-11T10:00:50.400Z,33.200
2023-02-11T10:01:50.505Z,34.500
2023-02-11T10:02:50.268Z,29.900
2023-02-11T10:03:50.576Z,29.700
2023-02-11T10:04:50.582Z,31.600
2023-02-11T10:05:50.678Z,30.700
2023-02-11T10:06:50.426Z,28.700
2023-02-11T10:07:50.103Z,29.000
2023-02-11T10:08:51.174Z,32.800
2023-02-11T10:09:49.910Z,28.800
2023-02-11T10:10:50.984Z,30.700
2023-02-11T10:11:54.878Z,28.600
2023-02-11T10:12:51.581Z,28.800
2023-02-11T10:13:50.620Z,26.900
2023-02-11T10:14:50.409Z,28.100
2023-02-11T10:15:50.231Z,28.300
2023-02-11T10:16:50.176Z,28.200
2023-02-11T10:17:50.796Z,28.100
2023-02-11T10:18:50.502Z,27.200
2023-02-11T10:19:50.122Z,28.500
2023-02-11T10:20:51.360Z,27.600
2023-02-11T10:21:50.437Z,26.500
2023-02-11T10:22:50.209Z,27.400
2023-02-11T10:23:51.022Z,27.100
2023-02-11T10:24:50.707Z,26.300
2023-02-11T10:25:50.488Z,27.400
2023-02-11T10:26:50.172Z,27.000
2023-02-11T10:27:50.820Z,26.000
2023-02-11T10:28:50.813Z,26.800
2023-02-11T10:29:50.656Z,26.200
2023-02-11T10:30:50.820Z,27.000
2023-02-11T10:31:50.722Z,25.800
2023-02-11T10:32:55.307Z,26.000
2023-02-11T10:33:50.037Z,26.600
2023-02-11T10:34:50.809Z,26.300
2023-02-11T10:35:50.471Z,26.300
2023-02-11T10:36:50.216Z,26.400
2023-02-11T10:37:50.109Z,25.400
2023-02-11T10:38:51.197Z,26.500
2023-02-11T10:39:49.881Z,25.400
2023-02-11T10:40:52.671Z,26.900
2023-02-11T10:41:50.525Z,26.500
2023-02-11T10:42:52.451Z,26.500
2023-02-11T10:43:49.884Z,27.300
2023-02-11T10:44:50.637Z,26.900
2023-02-11T10:45:50.301Z,27.100
2023-02-11T10:46:50.430Z,27.000
2023-02-11T10:47:50.240Z,27.300
2023-02-11T10:48:50.381Z,27.400
2023-02-11T10:49:50.125Z,26.400
2023-02-11T10:50:51.156Z,26.700
2023-02-11T10:51:50.095Z,27.800
2023-02-11T10:52:50.696Z,27.100
2023-02-11T10:53:50.336Z,27.300
2023-02-11T10:54:50.016Z,27.200
2023-02-11T10:55:50.676Z,26.400
2023-02-11T10:56:50.341Z,27.600
2023-02-11T10:57:49.980Z,28.100
2023-02-11T10:58:50.529Z,26.900
2023-02-11T10:59:50.209Z,27.600
2023-02-11T11:00:51.098Z,27.900
2023-02-11T11:01:55.372Z,27.300
2023-02-11T11:02:50.295Z,27.400
2023-02-11T11:03:49.954Z,27.400
2023-02-11T11:04:50.789Z,27.800
2023-02-11T11:05:50.669Z,27.900
2023-02-11T11:06:50.933Z,26.400
2023-02-11T11:07:50.596Z,27.300
2023-02-11T11:08:50.335Z,28.300
2023-02-11T11:09:50.184Z,27.600
2023-02-11T11:10:51.075Z,28.100
2023-02-11T11:11:49.901Z,26.500
2023-02-11T11:12:50.704Z,28.700
2023-02-11T11:13:50.468Z,27.400
2023-02-11T11:14:50.068Z,26.700
2023-02-11T11:15:51.846Z,28.100
2023-02-11T11:16:50.708Z,27.400
2023-02-11T11:17:50.495Z,27.500
2023-02-11T11:18:55.045Z,26.500
2023-02-11T11:19:50.914Z,26.700
2023-02-11T11:20:51.103Z,27.700
2023-02-11T11:21:50.220Z,28.100
2023-02-11T11:22:50.413Z,27.500
2023-02-11T11:23:50.225Z,28.200
2023-02-11T11:24:49.879Z,26.500
2023-02-11T11:25:50.574Z,26.400
2023-02-11T11:26:49.836Z,27.800
2023-02-11T11:27:50.489Z,27.900
2023-02-11T11:28:50.332Z,28.300
2023-02-11T11:29:50.304Z,28.000
2023-02-11T11:30:50.224Z,27.600
2023-02-11T11:31:50.529Z,28.600
2023-02-11T11:32:53.522Z,27.500
2023-02-11T11:33:50.253Z,27.600
2023-02-11T11:34:50.100Z,26.900
2023-02-11T11:35:50.767Z,27.100
2023-02-11T11:36:50.461Z,28.100
2023-02-11T11:37:50.177Z,27.900
2023-02-11T11:38:49.902Z,28.100
2023-02-11T11:39:50.524Z,26.900
2023-02-11T11:40:50.453Z,28.100
2023-02-11T11:41:50.453Z,27.700
2023-02-11T11:42:50.120Z,27.300
2023-02-11T11:43:50.858Z,27.600
2023-02-11T11:44:50.564Z,27.800
2023-02-11T11:45:50.285Z,27.800
2023-02-11T11:46:50.238Z,27.400
2023-02-11T11:47:50.008Z,28.200
2023-02-11T11:48:50.612Z,28.600
2023-02-11T11:49:50.252Z,28.200
2023-02-11T11:50:50.693Z,28.100
2023-02-11T11:51:50.491Z,26.800
2023-02-11T11:52:50.137Z,27.800
2023-02-11T11:53:50.990Z,27.600
2023-02-11T11:54:50.605Z,27.900
2023-02-11T11:55:50.235Z,28.200
2023-02-11T11:56:49.908Z,28.700
2023-02-11T11:57:50.532Z,27.800
2023-02-11T11:58:50.216Z,27.800
2023-02-11T11:59:49.904Z,28.100
2023-02-11T12:00:50.918Z,27.600
2023-02-11T12:01:50.379Z,28.300
2023-02-11T12:02:50.073Z,27.000
2023-02-11T12:03:50.913Z,27.000
2023-02-11T12:04:50.577Z,28.900
2023-02-11T12:05:50.294Z,29.500
2023-02-11T12:06:50.362Z,28.600
2023-02-11T12:07:49.997Z,27.700
2023-02-11T12:08:50.733Z,27.000
2023-02-11T12:09:50.497Z,28.800
2023-02-11T12:10:50.305Z,28.600
2023-02-11T12:11:51.493Z,28.300
2023-02-11T12:12:50.127Z,27.800
2023-02-11T12:13:50.908Z,28.400
2023-02-11T12:14:50.692Z,27.500
2023-02-11T12:15:50.444Z,28.500
2023-02-11T12:16:50.408Z,28.200
2023-02-11T12:17:50.334Z,28.800
2023-02-11T12:18:50.223Z,28.300
2023-02-11T12:19:49.856Z,28.800
2023-02-11T12:20:50.710Z,29.600
2023-02-11T12:21:49.879Z,28.400
2023-02-11T12:22:50.418Z,28.800
2023-02-11T12:23:50.120Z,27.600
2023-02-11T12:24:51.372Z,28.900
2023-02-11T12:25:50.043Z,29.500
2023-02-11T12:26:50.738Z,29.000
2023-02-11T12:27:50.416Z,28.700
2023-02-11T12:28:50.221Z,29.400
2023-02-11T12:29:49.864Z,28.400
2023-02-11T12:30:50.689Z,27.500
2023-02-11T12:31:50.561Z,28.600
2023-02-11T12:32:50.297Z,28.600
2023-02-11T12:33:50.102Z,28.600